Time;durP1;ratioP1;P1;durP2;ratioP2;P2;SDS_P1;SDS_P2;PMS_P1;PMS_P2;Temp;Humidity;BMP_temperature;BMP_pressure;BME280_temperature;BME280_humidity;BME280_pressure;Samples;Min_cycle;Max_cycle;Signal;HPM_P1;HPM_P2
2022/06/13 00:01:55;;;;;;;6.15;0.80;;;18.60;75.90;;;;;;4954896;28;20499;-83
2022/06/13 00:04:21;;;;;;;2.15;0.73;;;18.50;76.70;;;;;;4955129;28;20610;-82
2022/06/13 00:06:47;;;;;;;2.35;1.08;;;18.40;76.90;;;;;;4972240;28;20038;-84
2022/06/13 00:09:13;;;;;;;2.33;0.80;;;18.40;77.40;;;;;;4954161;28;20403;-82
2022/06/13 00:11:39;;;;;;;3.22;0.70;;;18.40;77.70;;;;;;4971180;28;20030;-84
2022/06/13 00:14:05;;;;;;;4.18;0.70;;;18.30;78.20;;;;;;4972949;28;20042;-83
2022/06/13 00:16:31;;;;;;;3.53;0.82;;;18.30;78.00;;;;;;4954112;28;20026;-83
2022/06/13 00:18:57;;;;;;;3.78;0.65;;;18.30;78.00;;;;;;4969880;28;20058;-83
2022/06/13 00:21:30;;;;;;;2.33;0.63;;;18.30;78.00;;;;;;4968767;28;20026;-82
2022/06/13 00:23:56;;;;;;;6.93;0.93;;;18.30;78.10;;;;;;4953513;28;20027;-83
2022/06/13 00:26:24;;;;;;;2.10;0.68;;;18.20;78.30;;;;;;4953496;28;20035;-82
2022/06/13 00:28:51;;;;;;;3.45;0.82;;;18.20;78.70;;;;;;4953226;28;20058;-83
2022/06/13 00:31:17;;;;;;;5.88;0.77;;;18.20;79.40;;;;;;4952289;28;20093;-83
2022/06/13 00:33:43;;;;;;;1.73;0.80;;;18.20;79.40;;;;;;4953127;28;20031;-82
2022/06/13 00:36:09;;;;;;;2.53;0.80;;;18.20;79.60;;;;;;4970752;28;20035;-82
2022/06/13 00:38:37;;;;;;;1.92;0.70;;;18.10;79.70;;;;;;4953428;28;20041;-83
2022/06/13 00:41:13;;;;;;;2.70;0.50;;;18.10;79.80;;;;;;4971496;28;20146;-82
2022/06/13 00:43:41;;;;;;;2.90;0.77;;;18.10;79.80;;;;;;4953700;28;20022;-82
2022/06/13 00:46:17;;;;;;;4.63;0.73;;;18.20;80.00;;;;;;4970954;28;20113;-82
2022/06/13 00:48:43;;;;;;;1.63;0.50;;;18.20;80.10;;;;;;4953574;28;20031;-82
2022/06/13 00:51:09;;;;;;;1.98;0.63;;;18.20;79.80;;;;;;4953531;28;20046;-83
2022/06/13 00:53:36;;;;;;;2.60;0.63;;;18.30;79.50;;;;;;4953097;28;20031;-82
2022/06/13 00:56:09;;;;;;;3.15;0.85;;;18.30;79.30;;;;;;4953769;28;20030;-82
2022/06/13 00:58:43;;;;;;;2.47;0.60;;;18.30;79.80;;;;;;4970533;28;20029;-82
2022/06/13 01:01:08;;;;;;;1.38;0.60;;;18.30;79.90;;;;;;4947566;28;20601;-84
2022/06/13 01:03:35;;;;;;;1.58;0.60;;;18.20;80.20;;;;;;4953386;28;20141;-84
2022/06/13 01:06:04;;;;;;;3.58;0.75;;;18.20;80.60;;;;;;4970283;28;20022;-84
2022/06/13 01:08:33;;;;;;;2.83;1.05;;;18.10;80.70;;;;;;4952042;28;20034;-84
2022/06/13 01:11:17;;;;;;;2.25;0.70;;;18.10;80.80;;;;;;4952038;28;20066;-84
2022/06/13 01:13:55;;;;;;;2.80;0.93;;;18.10;81.10;;;;;;4969351;28;20014;-84
2022/06/13 01:16:33;;;;;;;2.85;0.82;;;18.10;81.30;;;;;;4969716;28;20066;-83
2022/06/13 01:19:10;;;;;;;4.15;0.90;;;18.00;81.50;;;;;;4953201;28;20036;-84
2022/06/13 01:21:45;;;;;;;1.25;0.50;;;18.00;81.80;;;;;;4952515;28;20033;-84
2022/06/13 01:24:31;;;;;;;3.05;0.73;;;18.00;81.70;;;;;;4969334;28;20034;-82
2022/06/13 01:27:24;;;;;;;1.88;0.60;;;17.90;82.00;;;;;;4969339;28;20062;-83
2022/06/13 01:30:34;;;;;;;1.80;0.80;;;17.90;82.40;;;;;;4952916;28;20081;-84
2022/06/13 01:33:11;;;;;;;2.65;0.70;;;17.90;82.50;;;;;;4939455;28;20030;-85
2022/06/13 01:35:45;;;;;;;5.43;1.38;;;17.80;82.80;;;;;;4953664;28;20080;-84
2022/06/13 01:38:29;;;;;;;2.10;0.70;;;17.80;83.10;;;;;;4952997;28;20026;-82
2022/06/13 01:41:10;;;;;;;3.05;0.63;;;17.80;83.50;;;;;;4952100;28;20097;-85
2022/06/13 01:44:24;;;;;;;1.27;0.57;;;17.70;84.00;;;;;;4952907;28;20049;-83
2022/06/13 01:47:00;;;;;;;4.25;0.85;;;17.70;84.90;;;;;;4970350;28;20034;-83
2022/06/13 01:49:29;;;;;;;4.83;0.60;;;17.60;84.90;;;;;;4952668;28;20503;-83
2022/06/13 01:52:11;;;;;;;1.45;0.57;;;17.60;85.10;;;;;;4969703;28;20274;-83
2022/06/13 01:54:53;;;;;;;9.38;0.60;;;17.60;85.30;;;;;;4970083;28;20050;-84
2022/06/13 01:57:34;;;;;;;1.05;0.57;;;17.50;85.80;;;;;;4970096;28;20065;-84
2022/06/13 02:00:16;;;;;;;1.85;0.68;;;17.50;86.10;;;;;;4952501;28;20033;-84
2022/06/13 02:02:53;;;;;;;2.40;0.75;;;17.50;86.30;;;;;;4951262;28;20061;-84
2022/06/13 02:05:19;;;;;;;1.77;0.60;;;17.40;86.50;;;;;;4970233;28;20110;-84
2022/06/13 02:07:50;;;;;;;3.05;1.15;;;17.40;86.60;;;;;;4952409;28;20717;-85
2022/06/13 02:10:20;;;;;;;7.20;2.25;;;17.40;87.20;;;;;;4969970;28;20030;-86
2022/06/13 02:12:51;;;;;;;7.30;3.50;;;17.40;87.20;;;;;;4973502;28;20094;-82
2022/06/13 02:15:25;;;;;;;5.93;2.78;;;17.30;87.10;;;;;;4952011;28;20074;-83
2022/06/13 02:17:58;;;;;;;4.45;2.05;;;17.30;86.90;;;;;;4952963;28;20023;-84
2022/06/13 02:20:34;;;;;;;6.70;2.70;;;17.30;87.00;;;;;;4952706;28;20403;-82
2022/06/13 02:23:06;;;;;;;3.53;1.67;;;17.30;87.30;;;;;;4968452;28;20049;-83
2022/06/13 02:25:43;;;;;;;2.50;1.00;;;17.30;87.50;;;;;;4952584;28;20035;-82
2022/06/13 02:28:22;;;;;;;4.80;1.02;;;17.20;87.50;;;;;;4950580;28;20089;-82
2022/06/13 02:30:54;;;;;;;1.30;0.70;;;17.20;87.80;;;;;;4967758;28;20027;-81
2022/06/13 02:33:28;;;;;;;2.38;0.80;;;17.10;88.60;;;;;;4968188;28;20408;-82
2022/06/13 02:35:59;;;;;;;1.38;0.60;;;17.10;88.80;;;;;;4967330;28;20093;-81
2022/06/13 02:38:45;;;;;;;3.80;0.80;;;17.10;89.00;;;;;;4967686;28;20127;-82
2022/06/13 02:41:17;;;;;;;2.90;0.70;;;17.10;89.20;;;;;;4968140;28;20035;-82
2022/06/13 02:43:46;;;;;;;1.42;0.80;;;17.00;89.60;;;;;;4968020;28;20105;-82
2022/06/13 02:46:23;;;;;;;3.10;0.80;;;17.00;89.90;;;;;;4950352;28;20037;-81
2022/06/13 02:48:57;;;;;;;1.85;0.70;;;17.00;90.10;;;;;;4964673;28;20027;-82
2022/06/13 02:51:45;;;;;;;2.15;0.85;;;16.90;90.00;;;;;;4966974;28;20038;-82
2022/06/13 02:54:17;;;;;;;3.47;0.68;;;16.90;90.20;;;;;;4950031;28;20169;-81
2022/06/13 02:59:59;;;;;;;1.70;0.80;;;16.90;90.50;;;;;;4967784;28;20049;-82
2022/06/13 03:02:42;;;;;;;1.85;0.65;;;17.00;90.60;;;;;;4966797;28;20051;-82
2022/06/13 03:05:15;;;;;;;2.60;0.70;;;16.90;90.70;;;;;;4967602;28;20795;-82
2022/06/13 03:07:54;;;;;;;4.30;0.88;;;17.00;90.70;;;;;;4950520;28;20034;-83
2022/06/13 03:10:26;;;;;;;2.13;0.80;;;17.00;90.90;;;;;;4951133;28;20085;-83
2022/06/13 03:13:07;;;;;;;2.33;0.70;;;17.00;91.00;;;;;;4951288;28;20035;-83
2022/06/13 03:15:51;;;;;;;6.00;0.70;;;17.00;91.20;;;;;;4950581;28;20118;-80
2022/06/13 03:18:25;;;;;;;2.38;0.80;;;17.00;91.30;;;;;;4951437;28;20313;-84
2022/06/13 03:21:01;;;;;;;6.60;0.90;;;17.10;91.50;;;;;;4966851;28;20035;-84
2022/06/13 03:23:31;;;;;;;2.53;0.70;;;17.10;91.30;;;;;;4968459;28;20030;-83
2022/06/13 03:26:11;;;;;;;7.57;0.93;;;17.20;91.20;;;;;;4968269;28;20414;-84
2022/06/13 03:28:50;;;;;;;3.90;0.60;;;17.20;91.20;;;;;;4968540;28;20049;-84
2022/06/13 03:31:39;;;;;;;6.18;0.77;;;17.30;91.20;;;;;;4951230;28;20031;-84
2022/06/13 03:34:13;;;;;;;1.63;0.70;;;17.40;91.30;;;;;;4970499;28;20042;-84
2022/06/13 03:36:47;;;;;;;2.50;0.70;;;17.40;91.30;;;;;;4972082;28;20031;-85
2022/06/13 03:39:31;;;;;;;2.28;0.60;;;17.40;91.50;;;;;;4971409;28;20030;-84
2022/06/13 03:42:04;;;;;;;2.72;0.70;;;17.50;91.60;;;;;;4971514;28;20220;-85
2022/06/13 03:44:39;;;;;;;2.47;0.60;;;17.60;91.60;;;;;;4954375;28;20117;-83
2022/06/13 03:47:12;;;;;;;2.35;0.77;;;17.60;91.70;;;;;;4954101;28;20117;-83
2022/06/13 03:50:10;;;;;;;1.38;0.60;;;17.80;91.90;;;;;;4971651;28;20312;-84
2022/06/13 03:52:40;;;;;;;2.45;0.80;;;17.90;92.20;;;;;;4942232;28;20516;-85
2022/06/13 03:55:11;;;;;;;2.03;0.70;;;18.00;92.10;;;;;;4955343;28;20097;-85
2022/06/13 03:57:36;;;;;;;2.03;0.50;;;18.10;92.40;;;;;;4955663;28;20046;-85
2022/06/13 04:00:14;;;;;;;1.98;0.75;;;18.30;91.90;;;;;;4955592;28;20105;-85
2022/06/13 04:02:42;;;;;;;1.67;0.68;;;18.50;91.70;;;;;;4972912;28;20139;-84
2022/06/13 04:05:27;;;;;;;3.80;1.02;;;18.90;91.60;;;;;;4955299;28;20038;-83
2022/06/13 04:07:53;;;;;;;3.53;0.80;;;19.30;91.10;;;;;;4953889;28;20039;-80
2022/06/13 04:10:21;;;;;;;1.40;0.77;;;19.60;90.60;;;;;;4969766;28;20583;-81
2022/06/13 04:13:04;;;;;;;2.60;0.68;;;20.00;88.90;;;;;;4953550;28;20615;-81
2022/06/13 04:15:43;;;;;;;3.05;0.73;;;20.50;87.00;;;;;;4970537;28;20062;-82
2022/06/13 04:18:46;;;;;;;4.40;0.52;;;20.70;85.60;;;;;;4970863;28;20018;-81
2022/06/13 04:21:14;;;;;;;4.50;0.82;;;20.90;85.10;;;;;;4952777;28;20035;-81
2022/06/13 04:23:58;;;;;;;4.32;0.77;;;20.90;85.00;;;;;;4952982;28;20462;-81
2022/06/13 04:26:40;;;;;;;2.90;0.70;;;21.00;84.70;;;;;;4953427;28;20031;-81
2022/06/13 04:29:11;;;;;;;2.50;0.70;;;21.20;84.00;;;;;;4953282;28;20077;-81
2022/06/13 04:31:38;;;;;;;1.77;0.80;;;21.40;83.60;;;;;;4970165;28;20088;-80
2022/06/13 04:34:10;;;;;;;5.28;0.70;;;21.50;83.00;;;;;;4952762;28;20038;-81
2022/06/13 04:36:36;;;;;;;7.63;1.13;;;21.60;83.30;;;;;;4952730;28;20511;-81
2022/06/13 04:39:07;;;;;;;6.03;0.90;;;21.80;83.20;;;;;;4952852;28;20117;-79
2022/06/13 04:41:39;;;;;;;3.10;0.82;;;22.00;81.70;;;;;;4953103;28;20476;-81
2022/06/13 04:44:06;;;;;;;2.00;0.90;;;22.10;80.70;;;;;;4953577;28;20023;-83
2022/06/13 04:46:34;;;;;;;4.53;1.05;;;22.10;80.60;;;;;;4953582;28;20078;-81
2022/06/13 04:49:05;;;;;;;4.18;0.93;;;22.10;80.50;;;;;;4953284;28;20035;-81
2022/06/13 04:51:40;;;;;;;4.38;0.80;;;22.20;80.10;;;;;;4953152;28;20034;-81
2022/06/13 04:54:15;;;;;;;6.10;0.93;;;22.30;80.40;;;;;;4971367;28;20472;-83
2022/06/13 04:56:41;;;;;;;4.97;0.98;;;22.40;80.00;;;;;;4954081;28;20431;-82
2022/06/13 04:59:13;;;;;;;4.55;1.05;;;22.50;80.00;;;;;;4971013;28;20025;-81
2022/06/13 05:01:50;;;;;;;5.97;1.02;;;22.60;80.00;;;;;;4953251;28;20727;-81
2022/06/13 05:04:20;;;;;;;8.13;1.33;;;22.80;79.80;;;;;;4953698;28;20097;-81
2022/06/13 05:06:55;;;;;;;5.38;1.38;;;22.90;79.50;;;;;;4953403;28;20035;-81
2022/06/13 05:09:31;;;;;;;7.65;1.80;;;23.10;78.60;;;;;;4953480;28;20105;-82
2022/06/13 05:12:04;;;;;;;6.45;1.20;;;23.30;78.30;;;;;;4953073;28;20085;-81
2022/06/13 05:14:48;;;;;;;14.68;2.05;;;23.40;77.80;;;;;;4953418;28;20058;-82
2022/06/13 05:17:25;;;;;;;7.97;1.33;;;23.70;76.80;;;;;;4953010;28;20491;-81
2022/06/13 05:20:03;;;;;;;11.98;1.30;;;23.80;76.10;;;;;;4951776;28;20134;-80
2022/06/13 05:23:01;;;;;;;17.58;2.55;;;24.10;75.40;;;;;;4969913;28;20491;-82
2022/06/13 05:25:35;;;;;;;8.77;1.23;;;24.30;72.90;;;;;;4953161;28;20551;-83
2022/06/13 05:28:01;;;;;;;7.03;1.15;;;24.40;71.80;;;;;;4971171;28;20038;-81
2022/06/13 05:30:27;;;;;;;15.63;1.40;;;24.50;69.60;;;;;;4968576;28;20023;-84
2022/06/13 05:32:54;;;;;;;6.35;1.20;;;24.50;69.30;;;;;;4952718;28;20027;-80
2022/06/13 05:35:23;;;;;;;6.30;1.15;;;24.60;69.80;;;;;;4968397;28;20042;-80
2022/06/13 05:37:51;;;;;;;7.10;1.00;;;24.90;69.10;;;;;;4951400;28;20031;-80
2022/06/13 05:40:19;;;;;;;2.70;0.82;;;25.10;65.80;;;;;;4968694;28;20039;-79
2022/06/13 05:42:46;;;;;;;9.25;0.90;;;25.30;64.90;;;;;;4968462;28;20022;-80
2022/06/13 05:45:18;;;;;;;11.98;1.38;;;25.60;62.70;;;;;;4950766;28;20109;-80
2022/06/13 05:47:46;;;;;;;6.32;0.98;;;26.50;61.70;;;;;;4963122;28;20056;-80
2022/06/13 05:50:21;;;;;;;2.80;0.80;;;27.50;58.60;;;;;;4962473;28;20376;-81
2022/06/13 05:52:47;;;;;;;3.47;0.60;;;28.00;54.10;;;;;;4985393;28;20030;-80
2022/06/13 05:55:13;;;;;;;3.65;0.80;;;28.30;53.00;;;;;;4970248;28;20034;-81
2022/06/13 05:57:39;;;;;;;7.13;0.63;;;29.40;51.20;;;;;;4969770;28;20053;-81
2022/06/13 06:00:10;;;;;;;5.80;0.80;;;30.90;47.80;;;;;;4988044;28;20052;-81
2022/06/13 06:02:36;;;;;;;2.33;0.73;;;32.20;43.90;;;;;;4970048;28;20062;-81
2022/06/13 06:05:02;;;;;;;3.20;0.77;;;33.50;41.40;;;;;;4969961;28;20026;-81
2022/06/13 06:07:29;;;;;;;2.20;0.80;;;34.50;39.00;;;;;;4987233;28;20030;-81
2022/06/13 06:09:55;;;;;;;5.43;0.70;;;35.30;37.20;;;;;;4970000;28;20247;-80
2022/06/13 06:12:20;;;;;;;2.40;0.80;;;36.20;35.50;;;;;;4985359;28;20164;-81
2022/06/13 06:14:46;;;;;;;2.30;0.75;;;36.90;34.10;;;;;;4987377;28;20046;-81
2022/06/13 06:17:12;;;;;;;2.13;1.10;;;37.40;32.60;;;;;;4986513;28;20030;-80
2022/06/13 06:19:37;;;;;;;1.77;0.90;;;37.60;31.90;;;;;;4966434;28;20030;-81
2022/06/13 06:22:03;;;;;;;3.72;0.77;;;37.70;31.10;;;;;;4969236;28;20060;-81
2022/06/13 06:24:29;;;;;;;3.28;0.80;;;38.20;30.00;;;;;;4969325;28;20027;-81
2022/06/13 06:26:55;;;;;;;5.45;0.77;;;38.80;28.90;;;;;;4987021;28;20030;-81
2022/06/13 06:29:21;;;;;;;4.40;0.95;;;38.40;29.20;;;;;;4969674;28;20630;-81
2022/06/13 06:31:47;;;;;;;2.58;0.65;;;38.10;30.00;;;;;;4969830;28;20113;-80
2022/06/13 06:34:13;;;;;;;2.05;0.80;;;38.20;29.40;;;;;;4986734;28;20085;-81
2022/06/13 06:36:38;;;;;;;2.15;0.73;;;38.30;29.40;;;;;;4986957;28;20101;-81
2022/06/13 06:39:04;;;;;;;2.25;0.73;;;38.50;28.80;;;;;;4986767;28;20141;-79
2022/06/13 06:41:30;;;;;;;2.65;1.10;;;38.80;28.30;;;;;;4987209;28;20034;-81
2022/06/13 06:43:55;;;;;;;6.10;0.95;;;38.10;28.40;;;;;;4986940;28;20234;-81
2022/06/13 06:46:21;;;;;;;1.35;0.75;;;38.00;28.70;;;;;;4968893;28;20651;-81
2022/06/13 06:48:47;;;;;;;2.58;1.08;;;38.30;28.40;;;;;;4976432;28;20023;-82
2022/06/13 06:51:14;;;;;;;4.75;0.90;;;38.50;28.80;;;;;;4976497;28;20026;-81
2022/06/13 06:59:56;;;;;;;1.43;0.60;;;38.90;27.90;;;;;;4977724;28;20410;-80
2022/06/13 07:02:00;;;;;;;3.53;0.93;;;38.90;27.40;;;;;;4968998;28;20357;-80
2022/06/13 07:04:27;;;;;;;3.45;0.80;;;38.90;27.50;;;;;;4976745;28;20114;-82
2022/06/13 07:06:52;;;;;;;1.98;0.80;;;38.80;27.80;;;;;;4963357;28;20058;-81
2022/06/13 07:09:18;;;;;;;3.13;0.80;;;38.80;27.30;;;;;;4960155;28;20405;-81
2022/06/13 07:11:56;;;;;;;2.60;0.88;;;38.80;27.20;;;;;;4980367;28;20030;-81
2022/06/13 07:14:31;;;;;;;2.42;1.00;;;38.80;26.90;;;;;;4970463;28;20043;-82
2022/06/13 07:16:57;;;;;;;;;;;38.50;26.80;;;;;;4973943;28;20026;-81
2022/06/13 07:19:23;;;;;;;6.93;0.80;;;38.60;27.00;;;;;;4971116;28;19914;-82
2022/06/13 07:21:48;;;;;;;3.47;0.75;;;38.70;27.30;;;;;;4984383;28;20097;-81
2022/06/13 07:24:14;;;;;;;5.35;0.90;;;38.60;27.40;;;;;;4977903;28;20045;-82
2022/06/13 07:26:41;;;;;;;3.17;1.13;;;38.70;27.50;;;;;;4968157;28;20687;-81
2022/06/13 07:29:07;;;;;;;2.85;0.80;;;39.00;27.70;;;;;;4979633;28;20030;-81
2022/06/13 07:32:21;;;;;;;1.80;0.90;;;39.00;27.40;;;;;;4978238;28;20031;-82
2022/06/13 07:34:49;;;;;;;1.70;0.80;;;38.80;27.30;;;;;;4949446;28;20045;-81
2022/06/13 07:38:16;;;;;;;6.50;0.90;;;38.80;27.50;;;;;;4969910;28;20030;-82
2022/06/13 07:40:06;;;;;;;4.15;1.02;;;38.70;27.30;;;;;;4980432;28;20034;-81
2022/06/13 07:42:37;;;;;;;2.22;0.77;;;38.90;27.20;;;;;;4985030;28;20529;-81
2022/06/13 07:45:04;;;;;;;3.08;0.88;;;38.70;27.30;;;;;;4989762;28;20035;-81
2022/06/13 07:47:31;;;;;;;1.38;0.65;;;38.80;26.40;;;;;;4970962;28;20069;-80
2022/06/13 07:49:57;;;;;;;3.90;0.70;;;38.40;26.70;;;;;;4980318;28;20036;-81
2022/06/13 07:52:23;;;;;;;3.60;0.70;;;38.50;27.60;;;;;;4971929;28;20447;-81
2022/06/13 07:54:48;;;;;;;2.70;0.88;;;38.50;27.50;;;;;;4989336;28;20034;-81
2022/06/13 07:57:14;;;;;;;2.20;0.80;;;38.60;27.20;;;;;;4989976;28;20050;-81
2022/06/13 07:59:40;;;;;;;8.07;0.80;;;38.50;27.00;;;;;;4989068;28;20084;-81
2022/06/13 08:02:13;;;;;;;3.10;0.93;;;38.40;27.00;;;;;;4989017;28;20069;-82
2022/06/13 08:04:38;;;;;;;2.00;0.90;;;38.00;27.10;;;;;;4989105;28;20467;-81
2022/06/13 08:07:04;;;;;;;1.67;0.60;;;37.00;28.00;;;;;;4988957;28;20061;-81
2022/06/13 08:09:29;;;;;;;5.03;0.73;;;36.80;28.00;;;;;;4971903;28;20034;-81
2022/06/13 08:11:55;;;;;;;13.10;2.35;;;37.10;27.80;;;;;;4989681;28;20030;-79
2022/06/13 08:14:21;;;;;;;3.70;0.77;;;37.70;27.80;;;;;;4989412;28;20491;-79
2022/06/13 08:16:47;;;;;;;32.63;2.38;;;38.00;27.60;;;;;;4971922;28;20030;-79
2022/06/13 08:19:13;;;;;;;2.88;0.90;;;38.00;27.40;;;;;;4970739;28;20022;-80
2022/06/13 08:21:39;;;;;;;3.25;0.88;;;37.80;28.00;;;;;;4989133;28;20034;-78
2022/06/13 08:24:05;;;;;;;4.38;0.80;;;37.80;28.20;;;;;;4989070;28;20025;-81
2022/06/13 08:26:31;;;;;;;3.92;0.98;;;38.30;27.70;;;;;;4971681;28;20034;-80
2022/06/13 08:28:57;;;;;;;2.55;1.55;;;38.40;27.20;;;;;;4988486;28;20027;-79
2022/06/13 08:31:23;;;;;;;5.20;0.70;;;38.50;27.00;;;;;;4971667;28;20061;-80
2022/06/13 08:33:49;;;;;;;2.63;1.35;;;38.50;27.20;;;;;;4970673;28;20027;-80
2022/06/13 08:36:15;;;;;;;2.75;0.85;;;38.60;27.00;;;;;;4987893;28;20034;-80
2022/06/13 08:38:41;;;;;;;3.45;1.00;;;38.40;26.90;;;;;;4971842;28;20033;-80
2022/06/13 08:41:10;;;;;;;3.58;1.00;;;38.40;27.30;;;;;;4987126;28;20034;-79
2022/06/13 08:44:00;;;;;;;1.95;1.17;;;38.40;27.00;;;;;;4979340;28;20550;-80
2022/06/13 08:46:50;;;;;;;2.45;0.77;;;38.80;27.40;;;;;;4986212;28;20081;-80
2022/06/13 08:49:33;;;;;;;4.35;0.98;;;38.50;27.50;;;;;;4988371;28;20030;-81
2022/06/13 08:52:10;;;;;;;7.13;0.65;;;38.50;27.40;;;;;;4987252;28;20446;-80
2022/06/13 08:54:37;;;;;;;2.30;1.10;;;38.30;27.60;;;;;;4988390;28;20566;-80
2022/06/13 08:57:09;;;;;;;2.50;0.80;;;38.30;27.70;;;;;;4988614;28;20402;-80
2022/06/13 08:59:43;;;;;;;2.05;0.60;;;38.20;27.40;;;;;;4988701;28;20046;-80
2022/06/13 09:02:27;;;;;;;2.20;0.70;;;38.50;27.80;;;;;;4987962;28;20061;-80
2022/06/13 09:05:07;;;;;;;1.65;0.60;;;38.10;27.50;;;;;;4971028;28;20046;-80
2022/06/13 09:07:45;;;;;;;3.30;0.80;;;36.80;28.30;;;;;;4970443;28;20030;-80
2022/06/13 09:10:25;;;;;;;2.97;1.10;;;35.80;29.10;;;;;;4987983;28;20034;-80
2022/06/13 09:13:21;;;;;;;6.25;0.70;;;35.40;29.60;;;;;;4986913;28;20034;-80
2022/06/13 09:16:08;;;;;;;3.80;0.80;;;35.60;29.40;;;;;;4988244;28;20394;-79
2022/06/13 09:18:50;;;;;;;3.88;0.75;;;35.50;29.70;;;;;;4985417;28;20038;-79
2022/06/13 09:21:25;;;;;;;1.70;0.70;;;35.90;29.20;;;;;;4971387;28;20042;-80
2022/06/13 09:23:59;;;;;;;;;;;36.50;28.90;;;;;;4981035;28;20054;-80
2022/06/13 09:26:56;;;;;;;1.98;0.80;;;36.80;28.50;;;;;;4987638;28;20370;-79
2022/06/13 09:29:42;;;;;;;4.57;0.95;;;37.00;28.60;;;;;;4982582;28;20046;-80
2022/06/13 09:32:14;;;;;;;1.63;0.70;;;37.30;28.20;;;;;;4969049;28;20035;-80
2022/06/13 09:34:46;;;;;;;3.40;1.02;;;37.60;27.70;;;;;;4987839;28;20265;-81
2022/06/13 09:37:16;;;;;;;2.80;0.98;;;37.30;27.70;;;;;;4987831;28;20034;-80
2022/06/13 09:39:42;;;;;;;5.18;0.90;;;37.50;27.70;;;;;;5002453;28;20049;-78
2022/06/13 09:42:26;;;;;;;1.52;0.88;;;37.90;27.30;;;;;;5002714;28;20042;-80
2022/06/13 09:45:11;;;;;;;2.13;0.82;;;38.10;27.30;;;;;;4987715;28;20097;-80
2022/06/13 09:48:12;;;;;;;7.53;1.63;;;38.20;27.40;;;;;;4987791;28;20030;-80
2022/06/13 09:51:07;;;;;;;3.55;1.10;;;38.40;27.60;;;;;;4987306;28;20034;-79
2022/06/13 09:53:55;;;;;;;3.08;0.98;;;38.40;26.80;;;;;;4987385;28;20022;-80
2022/06/13 09:56:37;;;;;;;3.95;1.02;;;38.50;27.40;;;;;;4987207;28;20435;-80
2022/06/13 09:59:32;;;;;;;5.32;1.10;;;38.40;27.60;;;;;;4987494;28;20029;-79
2022/06/13 10:02:45;;;;;;;2.67;1.25;;;37.90;27.10;;;;;;4992237;28;20579;-79
2022/06/13 10:05:16;;;;;;;4.63;0.77;;;37.50;27.80;;;;;;4988918;28;20120;-79
2022/06/13 10:08:00;;;;;;;3.00;0.82;;;36.90;27.30;;;;;;4976273;28;20049;-79
2022/06/13 10:10:38;;;;;;;2.03;0.93;;;36.50;27.50;;;;;;4976951;28;20045;-78
2022/06/13 10:13:28;;;;;;;5.25;0.80;;;35.80;27.40;;;;;;4989739;28;20406;-78
2022/06/13 10:16:02;;;;;;;1.25;0.63;;;35.20;28.00;;;;;;4978292;28;20452;-79
2022/06/13 10:19:15;;;;;;;2.63;0.70;;;34.80;29.20;;;;;;4955208;28;20039;-80
2022/06/13 10:21:47;;;;;;;2.03;0.50;;;34.60;29.50;;;;;;4967737;28;20043;-80
2022/06/13 10:24:19;;;;;;;2.25;0.68;;;34.40;29.90;;;;;;4950320;28;20615;-80
2022/06/13 10:27:06;;;;;;;2.22;0.70;;;34.00;29.80;;;;;;4949654;28;20039;-80
2022/06/13 10:29:53;;;;;;;4.70;0.95;;;33.60;30.40;;;;;;4966412;28;20506;-78
2022/06/13 10:32:24;;;;;;;3.13;0.95;;;33.40;31.00;;;;;;4966980;28;20057;-79
2022/06/13 10:35:02;;;;;;;1.25;0.63;;;33.20;30.30;;;;;;4950306;28;20019;-79
2022/06/13 10:38:05;;;;;;;2.92;0.98;;;33.30;31.10;;;;;;4950436;28;20038;-80
2022/06/13 10:40:32;;;;;;;4.53;0.60;;;33.30;30.70;;;;;;4967223;28;20062;-78
2022/06/13 10:42:58;;;;;;;2.63;0.77;;;33.40;30.80;;;;;;4969692;28;20101;-79
2022/06/13 10:45:25;;;;;;;5.45;1.70;;;33.60;30.60;;;;;;4954229;28;20113;-80
2022/06/13 10:48:04;;;;;;;4.05;0.90;;;33.70;30.90;;;;;;4953687;28;20027;-80
2022/06/13 10:50:44;;;;;;;2.17;0.80;;;33.60;30.40;;;;;;4971300;28;20034;-80
2022/06/13 10:53:30;;;;;;;3.70;0.75;;;33.60;30.70;;;;;;4971144;28;20086;-79
2022/06/13 10:55:58;;;;;;;1.65;0.90;;;33.50;30.00;;;;;;4971128;28;20041;-79
2022/06/13 10:58:35;;;;;;;1.52;0.82;;;33.10;29.90;;;;;;4971314;28;20491;-78
2022/06/13 11:01:14;;;;;;;2.28;0.77;;;33.00;29.70;;;;;;4970523;28;20369;-80
2022/06/13 11:03:44;;;;;;;2.33;0.90;;;33.00;30.40;;;;;;4971080;28;20050;-80
2022/06/13 11:06:41;;;;;;;3.67;0.63;;;33.00;31.00;;;;;;4971096;28;20047;-81
2022/06/13 11:09:36;;;;;;;1.42;0.63;;;33.20;29.40;;;;;;4966864;28;20242;-80
2022/06/13 11:12:14;;;;;;;1.17;0.65;;;33.00;30.10;;;;;;4953710;28;20122;-80
2022/06/13 11:23:07;;;;;;;2.35;0.75;;;33.20;29.80;;;;;;4971169;28;20054;-80
2022/06/13 11:25:35;;;;;;;1.90;0.70;;;33.20;29.40;;;;;;4970639;28;20034;-80
2022/06/13 11:28:04;;;;;;;3.17;1.00;;;33.30;30.20;;;;;;4953147;28;20550;-81
2022/06/13 11:30:30;;;;;;;0.80;0.60;;;33.40;30.90;;;;;;4969875;28;20498;-81
2022/06/13 11:33:25;;;;;;;2.60;0.60;;;33.30;31.40;;;;;;4971076;28;20117;-80
2022/06/13 11:36:14;;;;;;;4.35;0.70;;;33.20;31.80;;;;;;4953362;28;20069;-80
2022/06/13 11:38:55;;;;;;;2.63;1.10;;;33.10;32.50;;;;;;4970476;28;20027;-80
2022/06/13 11:41:39;;;;;;;2.08;0.80;;;33.20;31.70;;;;;;4952867;28;20066;-80
2022/06/13 11:44:20;;;;;;;2.40;0.90;;;33.00;31.00;;;;;;4970419;28;20050;-80
2022/06/13 11:46:58;;;;;;;4.32;0.65;;;32.90;31.40;;;;;;4970144;28;20106;-80
2022/06/13 11:49:29;;;;;;;2.08;0.90;;;32.80;31.10;;;;;;4953091;28;20023;-80
2022/06/13 11:52:10;;;;;;;2.03;0.60;;;32.60;31.00;;;;;;4970188;28;20027;-81
2022/06/13 11:54:48;;;;;;;1.40;0.70;;;32.30;32.10;;;;;;4969149;28;20500;-80
2022/06/13 11:57:32;;;;;;;1.73;0.65;;;32.00;32.00;;;;;;4952492;28;20118;-81
2022/06/13 12:00:08;;;;;;;4.25;0.90;;;32.00;33.00;;;;;;4952574;28;20066;-81
2022/06/13 12:03:04;;;;;;;1.45;0.80;;;32.00;33.50;;;;;;4969820;28;20058;-82
2022/06/13 12:05:38;;;;;;;2.65;1.00;;;32.20;34.10;;;;;;4969902;28;20039;-80
2022/06/13 12:08:19;;;;;;;8.07;0.90;;;32.40;33.20;;;;;;4952574;28;20030;-80
2022/06/13 12:11:03;;;;;;;2.28;0.88;;;32.40;32.60;;;;;;4952814;28;20414;-79
2022/06/13 12:13:39;;;;;;;4.18;0.90;;;32.40;32.60;;;;;;4952531;28;20031;-80
2022/06/13 12:16:32;;;;;;;4.75;1.20;;;32.30;32.80;;;;;;4969755;28;20551;-80
2022/06/13 12:19:21;;;;;;;4.20;1.23;;;32.20;32.60;;;;;;4952619;28;20046;-80
2022/06/13 12:21:53;;;;;;;3.00;0.80;;;32.30;32.20;;;;;;4951171;28;20062;-82
2022/06/13 12:24:29;;;;;;;7.30;0.93;;;32.40;31.00;;;;;;4969221;28;20031;-81
2022/06/13 12:27:11;;;;;;;3.10;0.70;;;32.20;30.60;;;;;;4952194;28;20034;-82
2022/06/13 12:29:55;;;;;;;3.30;0.88;;;32.20;32.00;;;;;;4969101;28;20033;-81
2022/06/13 12:32:26;;;;;;;2.83;1.00;;;32.30;32.30;;;;;;4951796;28;20140;-82
2022/06/13 12:35:39;;;;;;;2.08;0.82;;;32.30;32.00;;;;;;4952049;28;20499;-81
2022/06/13 12:38:29;;;;;;;7.22;1.17;;;32.30;31.30;;;;;;4893580;29;20024;-81
2022/06/13 12:41:31;;;;;;;3.38;0.93;;;32.10;31.90;;;;;;4874736;29;20039;-81
2022/06/13 12:44:27;;;;;;;3.72;1.15;;;31.90;31.80;;;;;;4948280;28;20514;-81
2022/06/13 12:47:11;;;;;;;3.45;1.00;;;31.70;31.90;;;;;;4969020;28;20259;-80
2022/06/13 12:50:07;;;;;;;2.50;0.70;;;31.70;31.90;;;;;;4969538;28;20403;-80
2022/06/13 12:52:45;;;;;;;2.17;0.90;;;31.90;32.20;;;;;;4969243;28;20114;-82
2022/06/13 12:55:36;;;;;;;1.60;0.50;;;32.00;31.90;;;;;;4951812;28;20038;-82
2022/06/13 12:58:23;;;;;;;1.65;0.57;;;32.30;31.90;;;;;;4951380;28;20030;-80
2022/06/13 13:01:05;;;;;;;4.35;0.82;;;32.60;30.60;;;;;;4951130;28;20403;-79
2022/06/13 13:03:37;;;;;;;3.92;0.70;;;32.70;30.00;;;;;;4969092;28;20047;-80
2022/06/13 13:06:02;;;;;;;1.30;0.57;;;32.70;30.20;;;;;;4951285;28;20038;-81
2022/06/13 13:08:42;;;;;;;6.43;1.13;;;32.70;30.80;;;;;;4968755;28;20031;-81
2022/06/13 13:11:32;;;;;;;4.03;0.82;;;32.30;30.80;;;;;;4951312;28;20027;-80
2022/06/13 13:14:20;;;;;;;2.85;0.75;;;32.00;31.30;;;;;;4969005;28;20035;-81
2022/06/13 13:16:59;;;;;;;1.67;0.80;;;31.90;32.30;;;;;;4951361;28;20751;-81
2022/06/13 13:19:43;;;;;;;2.63;0.85;;;31.70;32.10;;;;;;4968560;28;20605;-80
2022/06/13 13:22:12;;;;;;;2.97;0.68;;;31.60;32.00;;;;;;4969873;28;20027;-80
2022/06/13 13:24:56;;;;;;;2.53;0.63;;;31.60;32.40;;;;;;4950820;28;20039;-80
2022/06/13 13:27:24;;;;;;;4.82;0.80;;;31.70;32.00;;;;;;4951162;28;20061;-80
2022/06/13 13:30:19;;;;;;;3.70;0.80;;;31.60;32.10;;;;;;4950927;28;20495;-81
2022/06/13 13:33:01;;;;;;;1.50;0.93;;;31.60;32.70;;;;;;4959985;28;20057;-81
2022/06/13 13:35:51;;;;;;;1.88;1.02;;;31.60;32.70;;;;;;4968711;28;20038;-80
2022/06/13 13:38:23;;;;;;;2.95;0.90;;;31.70;32.40;;;;;;4968274;28;20027;-81
2022/06/13 13:41:05;;;;;;;1.50;0.90;;;31.70;32.20;;;;;;4968408;28;20035;-81
2022/06/13 13:43:46;;;;;;;2.00;0.75;;;31.70;31.60;;;;;;4951340;28;20037;-81
2022/06/13 13:46:18;;;;;;;2.45;0.90;;;31.60;32.20;;;;;;4967379;28;20066;-81
2022/06/13 13:49:06;;;;;;;3.95;0.77;;;31.50;32.00;;;;;;4968186;28;20027;-81